createdAt,value
2023-05-07T00:03:15.033Z,101474.66
2023-05-07T00:08:08.249Z,101494.69
2023-05-07T00:13:01.597Z,101516.53
2023-05-07T00:17:56.141Z,101520.56
2023-05-07T00:22:49.390Z,101521.53
2023-05-07T00:27:42.675Z,101513.53
2023-05-07T00:32:36.008Z,101510.53
2023-05-07T00:37:31.170Z,101532.66
2023-05-07T00:42:25.136Z,101527.25
2023-05-07T00:47:19.237Z,101526.44
2023-05-07T00:52:14.131Z,101543.41
2023-05-07T00:57:08.916Z,101549.59
2023-05-07T01:02:02.114Z,101527.44
2023-05-07T01:06:56.933Z,101550.81
2023-05-07T01:11:52.781Z,101549.63
2023-05-07T01:16:47.508Z,101529.63
2023-05-07T01:21:46.030Z,101544.16
2023-05-07T01:26:41.959Z,101532.31
2023-05-07T01:31:37.001Z,101532.63
2023-05-07T01:36:31.425Z,101527.78
2023-05-07T01:41:24.716Z,101524.63
2023-05-07T01:46:20.389Z,101522.38
2023-05-07T01:51:13.976Z,101512.09
2023-05-07T01:56:07.877Z,101513.47
2023-05-07T02:01:03.549Z,101516.59
2023-05-07T02:05:58.559Z,101494.06
2023-05-07T02:10:59.668Z,101507.91
2023-05-07T02:15:52.936Z,101501.84
2023-05-07T02:20:46.315Z,101494.63
2023-05-07T02:25:41.149Z,101486.34
2023-05-07T02:30:34.311Z,101470.72
2023-05-07T02:35:27.691Z,101477.81
2023-05-07T02:40:21.539Z,101482.06
2023-05-07T02:45:16.762Z,101492.50
2023-05-07T02:50:12.207Z,101493.59
2023-05-07T02:55:07.197Z,101503.56
2023-05-07T03:00:01.148Z,101509.41
2023-05-07T03:04:59.060Z,101513.59
2023-05-07T03:09:52.333Z,101515.66
2023-05-07T03:14:45.713Z,101518.47
2023-05-07T03:19:39.015Z,101521.81
2023-05-07T03:24:33.706Z,101511.84
2023-05-07T03:29:27.002Z,101524.69
2023-05-07T03:34:23.160Z,101538.25
2023-05-07T03:39:16.748Z,101540.34
2023-05-07T03:44:11.454Z,101543.34
2023-05-07T03:49:05.403Z,101542.09
2023-05-07T03:53:58.796Z,101539.50
2023-05-07T03:58:54.456Z,101532.44
2023-05-07T04:03:49.392Z,101536.75
2023-05-07T04:08:43.388Z,101524.97
2023-05-07T04:13:36.669Z,101532.91
2023-05-07T04:18:32.846Z,101537.75
2023-05-07T04:23:28.019Z,101537.84
2023-05-07T04:28:22.850Z,101559.84
2023-05-07T04:33:17.948Z,101568.72
2023-05-07T04:38:12.094Z,101557.69
2023-05-07T04:43:08.529Z,101590.28
2023-05-07T04:48:08.012Z,101560.44
2023-05-07T04:53:01.606Z,101560.59
2023-05-07T04:57:55.594Z,101576.19
2023-05-07T05:02:51.634Z,101595.25
2023-05-07T05:07:47.724Z,101583.66
2023-05-07T05:12:41.317Z,101597.38
2023-05-07T05:17:35.794Z,101592.38
2023-05-07T05:22:32.571Z,101577.66
2023-05-07T05:27:26.986Z,101581.91
2023-05-07T05:32:21.127Z,101582.88
2023-05-07T05:37:14.886Z,101589.50
2023-05-07T05:42:09.778Z,101584.41
2023-05-07T05:47:03.503Z,101585.41
2023-05-07T05:51:57.333Z,101572.13
2023-05-07T05:56:52.389Z,101587.41
2023-05-07T06:01:47.331Z,101584.31
2023-05-07T06:06:40.771Z,101568.53
2023-05-07T06:11:34.667Z,101561.56
2023-05-07T06:16:28.328Z,101587.44
2023-05-07T06:21:23.017Z,101594.84
2023-05-07T06:26:16.223Z,101584.28
2023-05-07T06:31:14.394Z,101579.38
2023-05-07T06:36:09.385Z,101564.13
2023-05-07T06:41:04.956Z,101580.66
2023-05-07T06:45:58.329Z,101506.97
2023-05-07T06:50:52.206Z,101557.59
2023-05-07T06:55:45.768Z,101582.75
2023-05-07T07:00:41.848Z,101565.72
2023-05-07T07:05:35.526Z,101577.88
2023-05-07T07:10:30.448Z,101582.22
2023-05-07T07:15:26.001Z,101577.66
2023-05-07T07:20:22.285Z,101579.91
2023-05-07T07:25:15.589Z,101566.59
2023-05-07T07:30:10.683Z,101580.53
2023-05-07T07:35:07.678Z,101569.44
2023-05-07T07:40:04.547Z,101581.88
2023-05-07T07:44:58.815Z,101578.16
2023-05-07T07:49:55.970Z,101569.53
2023-05-07T07:54:49.551Z,101581.75
2023-05-07T07:59:44.562Z,101574.09
2023-05-07T08:04:40.018Z,101571.72
2023-05-07T08:09:35.013Z,101562.53
2023-05-07T08:14:30.052Z,101572.09
2023-05-07T08:19:25.081Z,101564.16
2023-05-07T08:24:18.680Z,101567.09
2023-05-07T08:29:13.774Z,101561.06
2023-05-07T08:34:09.538Z,101558.59
2023-05-07T08:39:07.533Z,101546.72
2023-05-07T08:44:04.723Z,101524.22
2023-05-07T08:48:58.005Z,101551.09
2023-05-07T08:53:52.042Z,101535.41
2023-05-07T08:58:57.594Z,101537.19
2023-05-07T09:03:54.044Z,101517.75
2023-05-07T09:08:52.976Z,101524.50
2023-05-07T09:13:46.697Z,101504.97
2023-05-07T09:18:44.639Z,101521.13
2023-05-07T09:23:39.747Z,101515.59
2023-05-07T09:28:34.191Z,101512.16
2023-05-07T09:33:29.801Z,101478.94
2023-05-07T09:38:25.913Z,101473.28
2023-05-07T09:43:23.854Z,101498.56
2023-05-07T09:48:23.324Z,101495.94
2023-05-07T09:53:21.311Z,101491.19
2023-05-07T09:58:18.584Z,101485.63
2023-05-07T10:03:14.060Z,101474.97
2023-05-07T10:08:17.983Z,101456.97
2023-05-07T10:13:14.428Z,101470.81
2023-05-07T10:18:16.576Z,101474.44
2023-05-07T10:23:17.004Z,101470.00
2023-05-07T10:28:14.736Z,101456.91
2023-05-07T10:33:16.112Z,101446.91
2023-05-07T10:38:11.489Z,101445.56
2023-05-07T10:43:10.567Z,101446.03
2023-05-07T10:48:28.009Z,101450.28
2023-05-07T10:53:29.494Z,101428.59
2023-05-07T10:58:34.248Z,101444.28
2023-05-07T11:04:16.358Z,101416.25
2023-05-07T11:09:23.745Z,101404.31
2023-05-07T11:14:46.004Z,101419.16
2023-05-07T11:19:53.579Z,101399.84
2023-05-07T11:25:12.882Z,101412.13
2023-05-07T11:30:07.206Z,101416.56
2023-05-07T11:35:02.144Z,101405.16
2023-05-07T11:40:06.595Z,101409.03
2023-05-07T11:45:01.087Z,101395.41
2023-05-07T11:49:57.516Z,101396.06
2023-05-07T11:54:56.949Z,101385.28
2023-05-07T11:59:50.267Z,101388.72
2023-05-07T12:04:44.721Z,101368.09
2023-05-07T12:09:37.835Z,101387.63
2023-05-07T12:14:31.312Z,101381.81
2023-05-07T12:19:25.034Z,101364.00
2023-05-07T12:24:21.946Z,101361.47
2023-05-07T12:29:15.316Z,101362.41
2023-05-07T12:34:08.456Z,101343.41
2023-05-07T12:39:01.955Z,101346.94
2023-05-07T12:43:58.917Z,101351.50
2023-05-07T12:48:52.073Z,101333.44
2023-05-07T12:53:45.263Z,101347.94
2023-05-07T12:58:38.729Z,101338.59
2023-05-07T13:03:36.190Z,101336.72
2023-05-07T13:08:31.161Z,101322.28
2023-05-07T13:13:24.265Z,101331.56
2023-05-07T13:18:17.568Z,101326.06
2023-05-07T13:23:12.100Z,101300.13
2023-05-07T13:28:10.678Z,101315.47
2023-05-07T13:33:04.907Z,101311.00
2023-05-07T13:37:58.035Z,101306.66
2023-05-07T13:42:52.930Z,101305.75
2023-05-07T13:47:54.149Z,101315.72
2023-05-07T13:52:51.604Z,101316.00
2023-05-07T13:57:44.705Z,101321.72
2023-05-07T14:02:37.947Z,101302.28
2023-05-07T14:07:32.449Z,101312.28
2023-05-07T14:12:25.816Z,101293.28
2023-05-07T14:17:19.092Z,101315.84
2023-05-07T14:22:12.230Z,101317.94
2023-05-07T14:27:07.046Z,101317.09
2023-05-07T14:32:00.136Z,101311.47
2023-05-07T14:36:53.321Z,101300.28
2023-05-07T14:41:46.328Z,101308.75
2023-05-07T14:46:40.896Z,101252.84
2023-05-07T14:51:35.203Z,101303.09
2023-05-07T14:56:28.522Z,101309.19
2023-05-07T15:01:22.959Z,101313.25
2023-05-07T15:06:17.798Z,101310.97
2023-05-07T15:11:12.906Z,101302.13
2023-05-07T15:16:06.337Z,101307.59
2023-05-07T15:20:59.866Z,101281.31
2023-05-07T15:25:54.641Z,101290.63
2023-05-07T15:30:47.787Z,101266.78
2023-05-07T15:35:40.906Z,101268.91
2023-05-07T15:40:36.300Z,101280.56
2023-05-07T15:45:31.376Z,101274.19
2023-05-07T15:50:24.650Z,101288.72
2023-05-07T15:55:18.291Z,101294.75
2023-05-07T16:00:12.869Z,101293.88
2023-05-07T16:05:11.092Z,101287.22
2023-05-07T16:10:04.491Z,101291.47
2023-05-07T16:14:57.605Z,101289.50
2023-05-07T16:19:51.966Z,101288.38
2023-05-07T16:24:46.462Z,101284.75
2023-05-07T16:29:40.107Z,101280.81
2023-05-07T16:34:33.212Z,101274.22
2023-05-07T16:39:26.283Z,101279.50
2023-05-07T16:44:20.692Z,101280.72
2023-05-07T16:49:13.842Z,101281.38
2023-05-07T16:54:07.162Z,101283.38
2023-05-07T16:59:03.333Z,101267.81
2023-05-07T17:03:57.830Z,101277.78
2023-05-07T17:08:51.595Z,101279.41
2023-05-07T17:13:44.652Z,101277.41
2023-05-07T17:18:37.797Z,101279.22
2023-05-07T17:23:32.318Z,101283.84
2023-05-07T17:28:25.453Z,101260.78
2023-05-07T17:33:21.544Z,101281.66
2023-05-07T17:38:15.172Z,101263.94
2023-05-07T17:43:09.586Z,101294.22
2023-05-07T17:48:03.466Z,101282.53
2023-05-07T17:52:56.576Z,101302.91
2023-05-07T17:57:49.635Z,101306.16
2023-05-07T18:02:44.340Z,101317.66
2023-05-07T18:07:37.564Z,101318.75
2023-05-07T18:12:30.633Z,101307.00
2023-05-07T18:17:24.320Z,101305.59
2023-05-07T18:22:18.921Z,101308.34
2023-05-07T18:27:13.641Z,101308.41
2023-05-07T18:32:07.042Z,101334.25
2023-05-07T18:37:00.134Z,101328.88
2023-05-07T18:41:54.543Z,101333.94
2023-05-07T18:46:48.852Z,101327.22
2023-05-07T18:51:41.982Z,101346.19
2023-05-07T18:56:35.121Z,101346.09
2023-05-07T19:01:29.758Z,101358.53
2023-05-07T19:06:22.964Z,101355.09
2023-05-07T19:11:16.597Z,101334.88
2023-05-07T19:16:13.532Z,101324.78
2023-05-07T19:21:08.882Z,101329.38
2023-05-07T19:26:04.033Z,101344.97
2023-05-07T19:30:57.176Z,101355.13
2023-05-07T19:35:50.218Z,101350.44
2023-05-07T19:40:44.664Z,101324.38
2023-05-07T19:45:37.985Z,101329.06
2023-05-07T19:50:31.132Z,101330.47
2023-05-07T19:55:24.488Z,101352.53
2023-05-07T20:00:21.287Z,101350.03
2023-05-07T20:05:14.456Z,101359.63
2023-05-07T20:10:08.498Z,101340.63
2023-05-07T20:15:01.878Z,101336.28
2023-05-07T20:19:56.991Z,101312.16
2023-05-07T20:24:50.144Z,101349.22
2023-05-07T20:29:43.241Z,101353.50
2023-05-07T20:34:36.375Z,101343.28
2023-05-07T20:39:30.792Z,101353.53
2023-05-07T20:44:23.771Z,101346.47
2023-05-07T20:49:16.830Z,101368.03
2023-05-07T20:54:11.081Z,101361.47
2023-05-07T20:59:05.545Z,101361.34
2023-05-07T21:03:58.637Z,101357.75
2023-05-07T21:08:51.730Z,101366.19
2023-05-07T21:13:44.836Z,101356.88
2023-05-07T21:18:39.409Z,101359.88
2023-05-07T21:23:32.518Z,101357.16
2023-05-07T21:28:25.635Z,101368.50
2023-05-07T21:33:18.753Z,101341.63
2023-05-07T21:38:13.285Z,101359.53
2023-05-07T21:43:06.432Z,101363.91
2023-05-07T21:47:59.629Z,101361.50
2023-05-07T21:52:52.825Z,101356.94
2023-05-07T21:58:01.259Z,101335.31
2023-05-07T22:02:58.535Z,101364.97
2023-05-07T22:07:51.799Z,101356.88
2023-05-07T22:12:44.852Z,101353.44
2023-05-07T22:17:39.503Z,101361.72
2023-05-07T22:22:32.577Z,101356.06
2023-05-07T22:27:25.692Z,101365.41
2023-05-07T22:32:18.973Z,101356.09
2023-05-07T22:37:13.476Z,101324.47
2023-05-07T22:42:07.567Z,101359.44
2023-05-07T22:47:00.680Z,101343.69
2023-05-07T22:51:53.830Z,101344.16
2023-05-07T22:56:48.321Z,101342.16
2023-05-07T23:01:41.732Z,101341.81
2023-05-07T23:06:34.835Z,101322.09
2023-05-07T23:11:27.919Z,101319.38
2023-05-07T23:16:22.445Z,101332.50
2023-05-07T23:21:15.534Z,101334.31
2023-05-07T23:26:08.596Z,101316.06
2023-05-07T23:31:01.858Z,101324.28
2023-05-07T23:36:01.567Z,101302.34
2023-05-07T23:40:54.913Z,101323.69
2023-05-07T23:45:47.996Z,101313.44
2023-05-07T23:50:41.015Z,101305.19
2023-05-07T23:55:35.508Z,101309.97
